createdAt,value
2019-02-08T00:01:52.893Z,575.43
2019-02-08T00:06:56.678Z,270.83
2019-02-08T00:12:00.448Z,560.33
2019-02-08T00:17:04.251Z,172.67
2019-02-08T00:22:08.703Z,432.57
2019-02-08T00:27:12.522Z,607.63
2019-02-08T00:32:16.237Z,542.43
2019-02-08T00:37:19.925Z,269.93
2019-02-08T00:42:23.945Z,674.03
2019-02-08T00:47:27.978Z,160.07
2019-02-08T00:52:31.941Z,361.63
2019-02-08T00:57:35.633Z,964.70
2019-02-08T01:02:39.914Z,406.30
2019-02-08T01:07:45.637Z,497.07
2019-02-08T01:12:49.397Z,468.90
2019-02-08T01:17:53.611Z,216.77
2019-02-08T01:22:57.502Z,198.93
2019-02-08T01:28:01.310Z,279.70
2019-02-08T01:33:05.582Z,895.57
2019-02-08T01:38:09.316Z,226.50
2019-02-08T01:43:13.142Z,743.23
2019-02-08T01:48:16.878Z,167.13
2019-02-08T01:53:20.647Z,1051.20
2019-02-08T01:58:24.663Z,172.70
2019-02-08T02:03:28.471Z,971.90
2019-02-08T02:08:32.278Z,1172.90
2019-02-08T02:13:36.083Z,347.00
2019-02-08T02:18:39.810Z,322.30
2019-02-08T02:23:43.529Z,179.57
2019-02-08T02:28:47.267Z,586.93
2019-02-08T02:33:50.959Z,661.47
2019-02-08T02:38:55.075Z,351.27
2019-02-08T02:43:58.779Z,242.50
2019-02-08T02:49:02.555Z,475.37
2019-02-08T02:54:06.451Z,279.13
2019-02-08T02:59:10.428Z,996.20
2019-02-08T03:04:14.262Z,452.83
2019-02-08T03:09:18.090Z,666.30
2019-02-08T03:14:22.159Z,319.73
2019-02-08T03:19:26.206Z,464.90
2019-02-08T03:24:29.918Z,849.23
2019-02-08T03:29:34.375Z,587.90
2019-02-08T03:34:38.087Z,589.17
2019-02-08T03:39:42.183Z,298.10
2019-02-08T03:44:45.938Z,700.77
2019-02-08T03:49:49.662Z,770.90
2019-02-08T03:54:53.432Z,760.50
2019-02-08T03:59:57.173Z,1217.07
2019-02-08T04:05:01.042Z,1078.30
2019-02-08T04:10:06.995Z,898.93
2019-02-08T04:15:13.430Z,750.13
2019-02-08T04:20:17.748Z,712.43
2019-02-08T04:25:21.607Z,321.57
2019-02-08T04:30:27.178Z,882.33
2019-02-08T04:35:31.158Z,559.70
2019-02-08T04:40:34.892Z,902.87
2019-02-08T04:45:38.615Z,705.57
2019-02-08T04:50:42.337Z,499.93
2019-02-08T04:55:46.081Z,661.70
2019-02-08T05:00:49.888Z,613.53
2019-02-08T05:05:53.612Z,830.57
2019-02-08T05:10:57.600Z,832.23
2019-02-08T05:16:01.413Z,372.90
2019-02-08T05:21:05.156Z,413.33
2019-02-08T05:26:08.976Z,742.30
2019-02-08T05:31:12.706Z,561.73
2019-02-08T05:36:16.409Z,380.00
2019-02-08T05:41:20.121Z,642.00
2019-02-08T05:46:23.837Z,336.90
2019-02-08T05:51:27.706Z,213.37
2019-02-08T05:56:31.412Z,639.53
2019-02-08T06:01:35.106Z,255.50
2019-02-08T06:06:38.852Z,398.67
2019-02-08T06:11:42.562Z,324.03
2019-02-08T06:16:47.062Z,703.60
2019-02-08T06:21:51.113Z,288.00
2019-02-08T06:26:54.899Z,774.97
2019-02-08T06:31:58.767Z,404.83
2019-02-08T06:37:02.540Z,758.57
2019-02-08T06:42:06.338Z,215.03
2019-02-08T06:47:10.066Z,399.13
2019-02-08T06:52:14.125Z,340.03
2019-02-08T06:57:31.461Z,354.87
2019-02-08T07:03:00.765Z,429.77
2019-02-08T07:08:18.673Z,203.73
2019-02-08T07:13:32.013Z,843.97
2019-02-08T07:18:43.916Z,247.23
2019-02-08T07:24:04.550Z,240.73
2019-02-08T07:29:16.899Z,294.87
2019-02-08T07:34:34.685Z,894.93
2019-02-08T07:40:13.858Z,476.53
2019-02-08T07:45:40.697Z,449.50
2019-02-08T07:50:50.272Z,161.97
2019-02-08T07:56:00.621Z,492.53
2019-02-08T08:01:23.425Z,523.23
2019-02-08T08:06:40.557Z,335.57
2019-02-08T08:11:49.889Z,163.27
2019-02-08T08:17:07.468Z,315.13
2019-02-08T08:22:22.347Z,127.47
2019-02-08T08:27:57.703Z,616.57
2019-02-08T08:33:19.519Z,358.37
2019-02-08T08:39:19.841Z,170.07
2019-02-08T08:44:49.190Z,1101.07
2019-02-08T08:50:27.360Z,509.10
2019-02-08T08:56:03.842Z,189.50
2019-02-08T09:01:28.448Z,265.00
2019-02-08T09:07:00.444Z,1018.10
2019-02-08T09:12:32.226Z,322.90
2019-02-08T09:18:00.767Z,378.57
2019-02-08T09:23:38.835Z,326.50
2019-02-08T09:29:09.694Z,506.17
2019-02-08T09:35:11.819Z,347.57
2019-02-08T09:41:03.524Z,327.73
2019-02-08T09:47:02.426Z,131.03
2019-02-08T09:52:41.942Z,460.03
2019-02-08T09:58:07.387Z,327.50
2019-02-08T10:03:47.227Z,143.73
2019-02-08T10:09:23.210Z,349.37
2019-02-08T10:15:19.119Z,413.67
2019-02-08T10:21:10.246Z,422.67
2019-02-08T10:26:56.805Z,969.37
2019-02-08T10:32:29.668Z,577.97
2019-02-08T10:38:09.976Z,500.73
2019-02-08T10:43:46.934Z,833.33
2019-02-08T10:49:56.292Z,738.37
2019-02-08T10:55:47.745Z,137.40
2019-02-08T11:01:42.003Z,556.13
2019-02-08T11:07:18.027Z,253.90
2019-02-08T11:13:27.159Z,599.33
2019-02-08T11:18:55.360Z,214.70
2019-02-08T11:23:59.317Z,210.07
2019-02-08T11:29:06.975Z,360.63
2019-02-08T11:34:11.522Z,664.10
2019-02-08T11:39:17.910Z,498.90
2019-02-08T11:44:22.779Z,234.60
2019-02-08T11:49:26.958Z,647.40
2019-02-08T11:54:31.138Z,1083.77
2019-02-08T11:59:35.641Z,574.77
2019-02-08T12:04:40.478Z,370.43
2019-02-08T12:09:44.486Z,1789.13
2019-02-08T12:14:48.387Z,543.47
2019-02-08T12:19:52.516Z,921.07
2019-02-08T12:24:56.612Z,439.60
2019-02-08T12:30:00.627Z,572.37
2019-02-08T12:35:05.954Z,697.17
2019-02-08T12:40:10.103Z,562.13
2019-02-08T12:45:14.739Z,530.57
2019-02-08T12:50:21.054Z,432.30
2019-02-08T12:55:24.899Z,667.70
2019-02-08T13:00:29.450Z,1488.77
2019-02-08T13:05:36.485Z,802.57
2019-02-08T13:10:40.773Z,946.27
2019-02-08T13:15:44.704Z,629.63
2019-02-08T13:20:48.757Z,1313.83
2019-02-08T13:25:52.619Z,1658.50
2019-02-08T13:30:56.447Z,1025.33
2019-02-08T13:36:04.663Z,494.30
2019-02-08T13:41:08.761Z,464.57
2019-02-08T13:46:15.600Z,1010.53
2019-02-08T13:51:19.880Z,1202.30
2019-02-08T13:56:27.671Z,960.27
2019-02-08T14:01:31.581Z,1004.33
2019-02-08T14:06:35.658Z,1573.13
2019-02-08T14:11:42.369Z,1028.77
2019-02-08T14:16:47.075Z,1125.17
2019-02-08T14:21:51.018Z,1117.40
2019-02-08T14:26:55.112Z,1699.63
2019-02-08T14:32:02.272Z,1659.50
2019-02-08T14:37:06.826Z,951.17
2019-02-08T14:42:10.662Z,1622.00
2019-02-08T14:47:14.662Z,1170.37
2019-02-08T14:52:18.824Z,1820.37
2019-02-08T14:57:22.630Z,1802.17
2019-02-08T15:02:26.553Z,1633.07
2019-02-08T15:07:31.231Z,1476.70
2019-02-08T15:12:35.051Z,1631.20
2019-02-08T15:17:39.917Z,1525.07
2019-02-08T15:22:44.095Z,1220.37
2019-02-08T15:27:48.188Z,1111.43
2019-02-08T15:32:52.582Z,1164.80
2019-02-08T15:37:56.559Z,1187.17
2019-02-08T15:43:00.844Z,1671.17
2019-02-08T15:48:05.201Z,1275.40
2019-02-08T15:53:09.490Z,1776.30
2019-02-08T15:58:13.923Z,1935.53
2019-02-08T16:03:18.749Z,1834.03
2019-02-08T16:08:22.852Z,1999.90
2019-02-08T16:13:27.130Z,1566.57
2019-02-08T16:18:31.286Z,1803.00
2019-02-08T16:23:35.472Z,1198.40
2019-02-08T16:28:39.949Z,1426.00
2019-02-08T16:33:44.248Z,1626.37
2019-02-08T16:38:49.845Z,1482.97
2019-02-08T16:43:53.799Z,1549.53
2019-02-08T16:48:58.231Z,1144.10
2019-02-08T16:54:02.119Z,931.07
2019-02-08T16:59:07.801Z,1043.20
2019-02-08T17:04:11.637Z,1304.60
2019-02-08T17:09:15.635Z,1241.60
2019-02-08T17:14:19.744Z,1273.97
2019-02-08T17:19:24.010Z,1157.47
2019-02-08T17:24:32.429Z,768.23
2019-02-08T17:29:36.570Z,1856.87
2019-02-08T17:34:40.982Z,529.03
2019-02-08T17:39:45.210Z,922.23
2019-02-08T17:44:49.113Z,865.27
2019-02-08T17:49:53.116Z,1396.23
2019-02-08T17:54:57.155Z,1790.93
2019-02-08T18:00:03.792Z,701.20
2019-02-08T18:05:08.183Z,852.17
2019-02-08T18:10:15.711Z,980.20
2019-02-08T18:15:20.982Z,485.70
2019-02-08T18:20:27.558Z,676.10
2019-02-08T18:25:31.643Z,624.20
2019-02-08T18:30:36.526Z,971.23
2019-02-08T18:35:40.695Z,572.70
2019-02-08T18:40:44.883Z,1700.40
2019-02-08T18:45:49.211Z,1443.77
2019-02-08T18:50:56.616Z,1999.90
2019-02-08T18:56:00.698Z,1148.93
2019-02-08T19:01:06.321Z,1542.70
2019-02-08T19:06:10.714Z,947.97
2019-02-08T19:11:18.046Z,1512.70
2019-02-08T19:16:23.217Z,1100.53
2019-02-08T19:21:27.147Z,1751.87
2019-02-08T19:26:33.883Z,1780.43
2019-02-08T19:31:41.882Z,1513.90
2019-02-08T19:36:46.102Z,1980.60
2019-02-08T19:41:50.407Z,1890.23
2019-02-08T19:46:54.205Z,1743.03
2019-02-08T19:51:57.943Z,1959.73
2019-02-08T19:57:02.195Z,1373.37
2019-02-08T20:02:06.470Z,1223.00
2019-02-08T20:07:13.193Z,1523.27
2019-02-08T20:12:17.397Z,1762.07
2019-02-08T20:17:21.471Z,1335.93
2019-02-08T20:22:25.552Z,1999.90
2019-02-08T20:27:29.395Z,1721.77
2019-02-08T20:32:33.794Z,1582.07
2019-02-08T20:37:38.655Z,1251.40
2019-02-08T20:42:42.743Z,1920.73
2019-02-08T20:47:46.930Z,1719.40
2019-02-08T20:52:52.924Z,1914.87
2019-02-08T20:57:57.106Z,1285.73
2019-02-08T21:03:01.626Z,1138.83
2019-02-08T21:08:07.010Z,1790.20
2019-02-08T21:13:11.783Z,1240.63
2019-02-08T21:18:15.583Z,766.87
2019-02-08T21:23:19.356Z,727.33
2019-02-08T21:28:23.679Z,1545.00
2019-02-08T21:33:27.813Z,1135.20
2019-02-08T21:38:32.039Z,1410.87
2019-02-08T21:43:35.859Z,1111.43
2019-02-08T21:48:39.679Z,689.40
2019-02-08T21:53:43.950Z,1077.20
2019-02-08T21:58:47.830Z,1109.27
2019-02-08T22:03:51.690Z,771.80
2019-02-08T22:08:55.610Z,650.60
2019-02-08T22:13:59.635Z,1587.13
2019-02-08T22:19:04.116Z,442.10
2019-02-08T22:24:08.115Z,472.37
2019-02-08T22:29:14.191Z,668.83
2019-02-08T22:34:18.287Z,537.50
2019-02-08T22:39:22.316Z,696.13
2019-02-08T22:44:26.755Z,731.60
2019-02-08T22:49:31.746Z,941.23
2019-02-08T22:54:38.685Z,624.57
2019-02-08T22:59:45.943Z,781.93
2019-02-08T23:04:49.650Z,289.70
2019-02-08T23:09:53.995Z,435.53
2019-02-08T23:14:57.891Z,699.77
2019-02-08T23:20:01.965Z,1331.73
2019-02-08T23:25:06.621Z,1406.93
2019-02-08T23:30:11.506Z,280.67
2019-02-08T23:35:18.510Z,248.13
2019-02-08T23:40:22.874Z,900.30
2019-02-08T23:45:26.872Z,1073.07
2019-02-08T23:50:30.773Z,873.90
2019-02-08T23:55:34.762Z,915.60
